Flight Track Log - Related Links

Times and Time Zones

All times are in EDT time to prevent confusion due to time zone crossing. See the RPA3161 flight status page for this flight to view local times or setup timezone preferences in your user account.

Time Position Orientation Groundspeed Altitude Reporting Facility
EDT Latitude Longitude Course Direction KTS MPH feet Rate Location/Type
Thu 12:33:54 PM 44.3364 -73.1075 198° South 267 307 6,400  Level Boston Center
Thu 12:34:00 PM 44.0525 -73.3047 194° South  Level FlightAware Approximate
Thu 12:34:54 PM 44.2675 -73.1214 188° South 261 300 9,900  Level Boston Center
Thu 12:35:00 PM 43.9479 -73.3396 193° South  Level FlightAware Approximate
Thu 12:35:54 PM 44.1883 -73.1581 198° South 282 325 12,500  Level Boston Center
Thu 12:36:00 PM 43.8437 -73.3774 195° South  Level FlightAware Approximate
Thu 12:36:54 PM 44.1025 -73.1975 198° South 319 367 15,300  Level Boston Center
Thu 12:37:00 PM 43.7398 -73.4164 195° South  Level FlightAware Approximate
Thu 12:37:54 PM 44.0128 -73.2397 199° South 333 383 18,000  Level Boston Center
Thu 12:38:00 PM 43.6362 -73.4563 198° South  Level FlightAware Approximate
Thu 12:38:54 PM 43.9269 -73.2819 200° South 354 407 20,100  Level Boston Center
Thu 12:39:00 PM 43.5340 -73.5028 198° South  Level FlightAware Approximate
Thu 12:39:54 PM 43.8286 -73.3264 198° South 365 420 22,400  Level Boston Center
Thu 12:40:54 PM 43.7261 -73.3739 199° South 377 434 24,600 1,750 Climbing Boston Center
Thu 12:41:54 PM 43.6217 -73.4153 196° South 388 447 25,900 1,350 Climbing Boston Center
Thu 12:42:54 PM 43.5108 -73.4650 198° South 404 465 27,300 1,050 Climbing Boston Center
Thu 12:43:54 PM 43.3936 -73.5172 198° South 427 491 28,000 350 Climbing Boston Center
Thu 12:44:54 PM 43.2722 -73.5722 198° South 447 514 28,000  Level Boston Center
Thu 12:45:54 PM 43.1444 -73.6267 197° South 466 536 28,000  Level Boston Center
Thu 12:46:54 PM 43.0189 -73.6839 198° South 481 554 28,000  Level Boston Center
Thu 12:47:54 PM 42.8869 -73.7294 194° South 486 559 28,000  Level Boston Center
Thu 12:48:54 PM 42.7553 -73.7719 193° South 486 559 28,000  Level Boston Center
Thu 12:49:54 PM 42.6233 -73.8169 194° South 486 559 28,000  Level Boston Center
Thu 12:50:54 PM 42.4958 -73.8622 195° South 486 559 28,000  Level Boston Center
Thu 12:51:54 PM 42.3658 -73.9042 193° South 486 559 28,000  Level Boston Center
Thu 12:53:06 PM 42.2361 -73.9458 193° South 486 559 28,000  Level Boston Center
Thu 12:54:06 PM 42.0769 -73.9981 194° South 486 559 28,000  Level Boston Center
Thu 12:55:06 PM 41.9472 -74.0394 193° South 486 559 28,000  Level Boston Center
Thu 12:56:06 PM 41.8153 -74.0808 193° South 486 559 28,000  Level Boston Center
Thu 12:58:26 PM 41.5019 -74.1781 193° South 482 555 28,000  Level New York Center
Thu 12:59:27 PM 41.3694 -74.2211 194° South 477 549 28,000  Level New York Center
Thu 01:00:26 PM 41.2497 -74.2592 193° South 498 573 28,000  Level New York Center
Thu 01:01:26 PM 41.1044 -74.3039 193° South 491 565 28,000  Level New York Center
Thu 01:02:26 PM 40.9764 -74.3439 193° South 485 558 28,000  Level New York Center
Thu 01:03:25 PM 40.8586 -74.3817 194° South 485 558 28,000  Level New York Center
Thu 01:04:25 PM 40.7408 -74.4850 214° Southwest 457 526 28,000  Level New York Center
Thu 01:05:27 PM 40.6725 -74.6017 232° Southwest 451 519 28,000  Level New York Center
Thu 01:06:27 PM 40.5844 -74.7417 230° Southwest 462 532 28,000  Level New York Center
Thu 01:07:25 PM 40.5078 -74.8517 228° Southwest 456 525 28,000  Level New York Center
Thu 01:08:25 PM 40.4200 -74.9719 226° Southwest 456 525 28,000 -555 Level New York Center
Thu 01:09:24 PM 40.3256 -75.1078 228° Southwest 462 532 26,900 -1,700 Descending New York Center
Thu 01:10:25 PM 40.2419 -75.2250 227° Southwest 457 526 24,600 -2,182 Descending New York Center
Thu 01:11:25 PM 40.1650 -75.3314 227° Southwest 450 518 22,500 -1,289 Descending New York Center
Thu 01:12:26 PM 40.0792 -75.4506 227° Southwest 429 494 22,000 -248 Descending New York Center
Thu 01:13:26 PM 40.0064 -75.5486 226° Southwest 424 488 22,000  Level New York Center
Thu 01:14:24 PM 39.9222 -75.6700 228° Southwest 424 488 22,000  Level New York Center
Thu 01:15:25 PM 39.8611 -75.7794 234° Southwest 424 488 22,000 -545 Level New York Center
Thu 01:16:25 PM 39.8000 -75.8967 236° Southwest 398 458 20,900 -1,140 Descending New York Center
Thu 01:17:26 PM 39.7522 -75.9850 235° Southwest 350 403 19,700 -1,279 Descending New York Center
Thu 01:18:27 PM 39.7122 -76.0872 243° Southwest 323 372 18,300 -1,513 Descending New York Center
Thu 01:19:25 PM 39.6758 -76.2006 247° West 317 365 16,700 -1,692 Descending New York Center
Thu 01:20:24 PM 39.6444 -76.2925 246° West 311 358 15,000 -1,795 Descending New York Center
Thu 01:21:22 PM 39.6000 -76.4000 242° Southwest 299 344 13,200 -1,525 Descending Potomac TRACON
Thu 01:22:22 PM 39.5667 -76.5000 247° West 297 342 12,000 -595 Descending Potomac TRACON
Thu 01:23:23 PM 39.5500 -76.6000 258° West 297 342 12,000  Level Potomac TRACON
Thu 01:24:23 PM 39.5000 -76.6833 232° Southwest 310 357 12,000  Level Potomac TRACON
Thu 01:25:23 PM 39.4167 -76.6833 180° South 315 362 12,000 -500 Level Potomac TRACON
Thu 01:26:23 PM 39.3167 -76.6667 173° South 315 362 11,000 -1,000 Descending Potomac TRACON
Thu 01:27:23 PM 39.2333 -76.6667 180° South 307 353 10,000 -500 Descending Potomac TRACON
Thu 01:28:23 PM 39.1667 -76.7000 201° Southwest 304 350 10,000 -50 Level Potomac TRACON
Thu 01:29:24 PM 39.1333 -76.8000 247° West 292 336 9,900 -744 Descending Potomac TRACON
Thu 01:30:24 PM 39.1000 -76.9000 247° West 289 333 8,500 -1,450 Descending Potomac TRACON
Thu 01:31:24 PM 39.0667 -76.9833 243° Southwest 279 321 7,000 -1,650 Descending Potomac TRACON
Thu 01:32:24 PM 39.0500 -77.0833 258° West 269 310 5,200 -1,736 Descending Potomac TRACON
Thu 01:33:25 PM 39.0167 -77.1667 243° Southwest 266 306 3,500 -1,388 Descending Potomac TRACON
Thu 01:34:25 PM 38.9500 -77.1833 191° South 238 274 2,400 -1,100 Descending Potomac TRACON

Login

Don't have an account? Register now (free) for customized features, flight alerts, and more!